createdAt,value
2022-09-26T00:00:13.859Z,24.78
2022-09-26T00:05:19.096Z,24.61
2022-09-26T00:10:22.753Z,24.48
2022-09-26T00:15:27.139Z,24.51
2022-09-26T00:20:32.316Z,24.57
2022-09-26T00:25:35.890Z,24.41
2022-09-26T00:30:42.595Z,24.20
2022-09-26T00:35:52.938Z,24.20
2022-09-26T00:40:56.552Z,24.06
2022-09-26T00:46:05.723Z,23.93
2022-09-26T00:51:11.536Z,23.71
2022-09-26T00:56:19.544Z,23.55
2022-09-26T01:01:23.511Z,23.46
2022-09-26T01:06:28.877Z,23.15
2022-09-26T01:11:32.638Z,22.90
2022-09-26T01:16:37.685Z,22.64
2022-09-26T01:22:13.573Z,22.50
2022-09-26T01:27:55.050Z,22.35
2022-09-26T01:33:27.463Z,22.09
2022-09-26T01:38:44.789Z,21.93
2022-09-26T01:43:57.927Z,21.68
2022-09-26T01:49:10.745Z,21.46
2022-09-26T01:54:18.606Z,21.46
2022-09-26T01:59:27.703Z,21.51
2022-09-26T02:04:38.203Z,21.48
2022-09-26T02:09:45.911Z,21.32
2022-09-26T02:14:54.414Z,21.32
2022-09-26T02:20:01.585Z,20.99
2022-09-26T02:25:06.229Z,20.82
2022-09-26T02:30:10.875Z,20.75
2022-09-26T02:35:16.742Z,20.68
2022-09-26T02:40:22.778Z,20.47
2022-09-26T02:45:31.385Z,20.50
2022-09-26T02:50:59.630Z,20.27
2022-09-26T02:56:12.127Z,19.93
2022-09-26T03:01:22.203Z,19.75
2022-09-26T03:06:33.692Z,19.64
2022-09-26T03:11:38.180Z,19.61
2022-09-26T03:16:46.174Z,19.40
2022-09-26T03:21:51.483Z,19.28
2022-09-26T03:26:56.705Z,19.24
2022-09-26T03:32:00.473Z,19.25
2022-09-26T03:37:05.921Z,19.04
2022-09-26T03:42:09.492Z,19.06
2022-09-26T03:47:13.634Z,19.02
2022-09-26T03:52:18.880Z,18.89
2022-09-26T03:57:22.594Z,18.76
2022-09-26T04:02:26.208Z,18.65
2022-09-26T04:07:31.443Z,18.59
2022-09-26T04:12:34.968Z,18.63
2022-09-26T04:17:38.500Z,18.55
2022-09-26T04:22:43.728Z,18.43
2022-09-26T04:27:47.281Z,18.20
2022-09-26T04:32:50.801Z,18.06
2022-09-26T04:37:55.953Z,18.06
2022-09-26T04:42:59.569Z,17.97
2022-09-26T04:48:03.387Z,18.01
2022-09-26T04:53:08.588Z,17.86
2022-09-26T04:58:12.183Z,17.97
2022-09-26T05:03:16.194Z,17.97
2022-09-26T05:08:21.356Z,17.66
2022-09-26T05:13:26.012Z,17.54
2022-09-26T05:18:29.995Z,17.64
2022-09-26T05:23:38.610Z,17.50
2022-09-26T05:28:44.460Z,17.67
2022-09-26T05:33:48.067Z,17.57
2022-09-26T05:38:53.653Z,17.52
2022-09-26T05:43:57.303Z,17.51
2022-09-26T05:49:00.834Z,17.45
2022-09-26T05:54:06.059Z,17.36
2022-09-26T05:59:09.896Z,17.15
2022-09-26T06:04:13.642Z,16.89
2022-09-26T06:09:18.825Z,16.80
2022-09-26T06:14:22.379Z,16.62
2022-09-26T06:19:25.957Z,16.52
2022-09-26T06:24:31.207Z,16.47
2022-09-26T06:29:34.785Z,16.36
2022-09-26T06:34:38.328Z,16.26
2022-09-26T06:39:43.474Z,16.24
2022-09-26T06:44:47.021Z,16.21
2022-09-26T06:49:50.570Z,16.13
2022-09-26T06:54:55.756Z,16.01
2022-09-26T06:59:59.275Z,15.97
2022-09-26T07:05:03.266Z,15.97
2022-09-26T07:10:09.542Z,15.87
2022-09-26T07:15:14.122Z,15.82
2022-09-26T07:20:19.870Z,15.77
2022-09-26T07:25:25.042Z,15.71
2022-09-26T07:30:28.971Z,15.68
2022-09-26T07:35:33.669Z,15.61
2022-09-26T07:40:39.856Z,15.56
2022-09-26T07:45:43.414Z,15.49
2022-09-26T07:50:47.727Z,15.42
2022-09-26T07:55:52.970Z,15.35
2022-09-26T08:00:56.521Z,15.34
2022-09-26T08:06:02.200Z,15.30
2022-09-26T08:11:14.343Z,15.28
2022-09-26T08:16:19.002Z,15.21
2022-09-26T08:21:23.411Z,15.08
2022-09-26T08:26:29.596Z,15.04
2022-09-26T08:31:33.267Z,15.04
2022-09-26T08:36:36.866Z,15.02
2022-09-26T08:41:59.542Z,14.96
2022-09-26T08:47:05.475Z,14.93
2022-09-26T08:52:14.980Z,14.87
2022-09-26T08:57:30.505Z,14.83
2022-09-26T09:02:39.690Z,14.84
2022-09-26T09:07:43.349Z,14.79
2022-09-26T09:12:59.229Z,14.73
2022-09-26T09:18:16.094Z,14.75
2022-09-26T09:23:47.124Z,14.71
2022-09-26T09:29:19.154Z,14.61
2022-09-26T09:34:27.355Z,14.55
2022-09-26T09:39:34.662Z,14.56
2022-09-26T09:44:47.589Z,14.55
2022-09-26T09:49:52.395Z,14.47
2022-09-26T09:55:11.966Z,14.40
2022-09-26T10:00:19.839Z,14.35
2022-09-26T10:05:36.234Z,14.36
2022-09-26T10:10:44.485Z,14.33
2022-09-26T10:15:56.418Z,14.31
2022-09-26T10:21:02.338Z,14.28
2022-09-26T10:26:08.874Z,14.24
2022-09-26T10:31:24.416Z,14.23
2022-09-26T10:36:32.700Z,14.19
2022-09-26T10:41:41.248Z,14.16
2022-09-26T10:46:46.790Z,14.15
2022-09-26T10:51:54.704Z,14.08
2022-09-26T10:56:58.318Z,14.07
2022-09-26T11:02:05.153Z,14.07
2022-09-26T11:07:12.685Z,14.05
2022-09-26T11:12:24.218Z,13.95
2022-09-26T11:17:45.576Z,13.99
2022-09-26T11:22:56.968Z,13.97
2022-09-26T11:28:05.244Z,13.95
2022-09-26T11:33:14.298Z,14.00
2022-09-26T11:38:36.399Z,14.10
2022-09-26T11:43:52.747Z,14.21
2022-09-26T11:49:06.560Z,14.19
2022-09-26T11:54:29.803Z,14.28
2022-09-26T11:59:58.211Z,14.27
2022-09-26T12:05:26.759Z,14.41
2022-09-26T12:10:37.947Z,14.47
2022-09-26T12:15:49.673Z,14.38
2022-09-26T12:21:06.790Z,14.44
2022-09-26T12:26:19.302Z,14.26
2022-09-26T12:31:33.023Z,14.24
2022-09-26T12:36:51.273Z,14.33
2022-09-26T12:42:10.023Z,14.35
2022-09-26T12:47:40.318Z,14.38
2022-09-26T12:53:15.070Z,14.49
2022-09-26T12:58:33.507Z,14.58
2022-09-26T13:04:07.740Z,14.67
2022-09-26T13:09:28.334Z,14.73
2022-09-26T13:14:45.168Z,14.68
2022-09-26T13:19:55.238Z,14.69
2022-09-26T13:25:07.169Z,14.62
2022-09-26T13:30:18.732Z,14.64
2022-09-26T13:35:24.613Z,14.68
2022-09-26T13:40:41.500Z,15.04
2022-09-26T13:45:54.573Z,15.00
2022-09-26T13:51:06.615Z,14.98
2022-09-26T13:56:37.242Z,14.97
2022-09-26T14:02:01.479Z,14.87
2022-09-26T14:07:15.545Z,15.00
2022-09-26T14:12:34.152Z,15.03
2022-09-26T14:18:24.582Z,14.98
2022-09-26T14:23:43.278Z,15.06
2022-09-26T14:28:56.067Z,15.02
2022-09-26T14:34:20.392Z,15.09
2022-09-26T14:39:36.911Z,15.16
2022-09-26T14:44:51.283Z,15.24
2022-09-26T14:50:05.623Z,15.14
2022-09-26T14:55:09.459Z,15.21
2022-09-26T15:00:37.550Z,15.11
2022-09-26T15:05:42.184Z,14.97
2022-09-26T15:10:47.766Z,15.08
2022-09-26T15:15:58.600Z,15.31
2022-09-26T15:21:11.187Z,15.39
2022-09-26T15:26:17.571Z,15.42
2022-09-26T15:31:37.556Z,15.58
2022-09-26T15:36:42.904Z,15.64
2022-09-26T15:41:46.564Z,15.61
2022-09-26T15:46:52.318Z,15.83
2022-09-26T15:51:57.462Z,16.25
2022-09-26T15:57:04.120Z,16.74
2022-09-26T16:02:22.792Z,17.80
2022-09-26T16:07:29.224Z,18.64
2022-09-26T16:12:33.139Z,19.39
2022-09-26T16:17:40.321Z,19.83
2022-09-26T16:22:44.907Z,19.96
2022-09-26T16:27:49.674Z,20.14
2022-09-26T16:32:56.788Z,19.86
2022-09-26T16:38:01.908Z,19.90
2022-09-26T16:43:06.634Z,20.12
2022-09-26T16:48:37.320Z,20.32
2022-09-26T16:53:43.265Z,20.44
2022-09-26T16:58:51.370Z,20.60
2022-09-26T17:03:56.965Z,20.72
2022-09-26T17:09:08.342Z,20.92
2022-09-26T17:14:14.856Z,21.39
2022-09-26T17:19:20.055Z,21.54
2022-09-26T17:24:25.619Z,21.65
2022-09-26T17:29:32.830Z,21.86
2022-09-26T17:34:38.368Z,21.96
2022-09-26T17:39:41.893Z,21.78
2022-09-26T17:44:45.447Z,21.71
2022-09-26T17:49:53.395Z,21.71
2022-09-26T17:54:58.790Z,21.91
2022-09-26T18:00:02.016Z,22.39
2022-09-26T18:05:18.006Z,22.55
2022-09-26T18:10:24.212Z,22.40
2022-09-26T18:15:28.830Z,22.73
2022-09-26T18:20:38.127Z,22.56
2022-09-26T18:25:43.649Z,22.72
2022-09-26T18:30:53.267Z,22.74
2022-09-26T18:41:03.800Z,23.15
2022-09-26T18:46:09.245Z,23.14
2022-09-26T18:51:14.881Z,23.25
2022-09-26T18:56:18.486Z,23.43
2022-09-26T19:01:27.632Z,23.69
2022-09-26T19:06:37.211Z,23.78
2022-09-26T19:11:41.022Z,23.79
2022-09-26T19:16:45.768Z,24.01
2022-09-26T19:21:52.481Z,23.76
2022-09-26T19:26:58.419Z,24.07
2022-09-26T19:32:02.675Z,24.24
2022-09-26T19:37:11.383Z,24.27
2022-09-26T19:42:14.988Z,24.02
2022-09-26T19:47:20.586Z,24.08
2022-09-26T19:52:25.825Z,23.99
2022-09-26T19:57:29.432Z,24.08
2022-09-26T20:02:33.761Z,24.04
2022-09-26T20:07:38.959Z,24.13
2022-09-26T20:12:41.761Z,24.09
2022-09-26T20:17:46.310Z,23.85
2022-09-26T20:22:52.179Z,23.93
2022-09-26T20:27:55.946Z,24.10
2022-09-26T20:32:59.733Z,24.09
2022-09-26T20:38:08.457Z,24.00
2022-09-26T20:43:17.732Z,24.09
2022-09-26T20:48:23.775Z,24.41
2022-09-26T20:53:29.062Z,24.53
2022-09-26T20:58:32.583Z,24.74
2022-09-26T21:03:36.124Z,24.66
2022-09-26T21:08:43.711Z,24.46
2022-09-26T21:13:48.991Z,24.35
2022-09-26T21:18:53.671Z,24.30
2022-09-26T21:24:00.220Z,24.44
2022-09-26T21:29:06.930Z,24.52
2022-09-26T21:34:15.467Z,24.69
2022-09-26T21:39:20.843Z,24.73
2022-09-26T21:44:29.870Z,24.65
2022-09-26T21:49:33.416Z,24.79
2022-09-26T21:54:41.664Z,24.71
2022-09-26T21:59:46.104Z,24.67
2022-09-26T22:04:49.662Z,24.84
2022-09-26T22:09:54.809Z,24.85
2022-09-26T22:14:58.353Z,24.83
2022-09-26T22:20:02.151Z,24.82
2022-09-26T22:25:08.284Z,24.90
2022-09-26T22:30:13.098Z,24.79
2022-09-26T22:35:16.758Z,24.77
2022-09-26T22:40:22.038Z,24.61
2022-09-26T22:45:25.605Z,24.61
2022-09-26T22:50:29.164Z,24.51
2022-09-26T22:55:35.242Z,24.57
2022-09-26T23:00:39.340Z,24.57
2022-09-26T23:05:47.019Z,24.51
2022-09-26T23:10:53.375Z,24.50
2022-09-26T23:15:56.969Z,24.40
2022-09-26T23:21:00.492Z,24.34
2022-09-26T23:26:06.980Z,24.16
2022-09-26T23:31:11.883Z,24.09
2022-09-26T23:36:14.858Z,24.08
2022-09-26T23:41:20.217Z,23.95
2022-09-26T23:46:23.828Z,23.90
2022-09-26T23:51:27.410Z,23.94
2022-09-26T23:56:32.626Z,23.81
